Flight Track Log - Related Links

Times and Time Zones

All times are in EDT time to prevent confusion due to time zone crossing. See the SWA1035 flight status page for this flight to view local times or setup timezone preferences in your user account.

Time Position Orientation Groundspeed Altitude Reporting Facility
EDT Latitude Longitude Course Direction KTS MPH feet Rate Location/Type
Mon 07:08:19 AM 42.9500 -71.4167 20° North 155 178 1,100  Level KA90
Mon 07:09:14 AM 42.9833 -71.4000 20° North 209 241 3,000 3,092 Climbing KA90
Mon 07:11:02 AM 43.0303 -71.2869 60° Northeast 221 254 9,500 3,179 Climbing Boston Center
Mon 07:12:02 AM 43.0500 -71.1786 76° East 240 276 11,900 3,150 Climbing Boston Center
Mon 07:13:02 AM 43.0361 -71.0767 101° East 293 337 15,800 3,500 Climbing Boston Center
Mon 07:14:02 AM 42.9603 -70.9989 143° Southeast 286 329 18,900 2,650 Climbing Boston Center
Mon 07:15:02 AM 42.8700 -70.9583 162° South 324 373 21,100 2,600 Climbing Boston Center
Mon 07:16:02 AM 42.7686 -70.9978 196° South 328 377 24,100 2,450 Climbing Boston Center
Mon 07:17:02 AM 42.6819 -71.0872 217° Southwest 346 398 26,000 1,850 Climbing Boston Center
Mon 07:18:02 AM 42.6128 -71.2186 234° Southwest 388 447 27,800 1,700 Climbing Boston Center
Mon 07:19:02 AM 42.5369 -71.3581 234° Southwest 418 481 29,400 1,550 Climbing Boston Center
Mon 07:20:02 AM 42.4592 -71.5031 234° Southwest 459 528 30,900 1,850 Climbing Boston Center
Mon 07:21:02 AM 42.3725 -71.6475 231° Southwest 490 564 33,100 2,300 Climbing Boston Center
Mon 07:22:02 AM 42.2944 -71.7889 233° Southwest 490 564 35,500 2,100 Climbing Boston Center
Mon 07:23:02 AM 42.2181 -71.9272 233° Southwest 484 557 37,300 1,650 Climbing Boston Center
Mon 07:24:02 AM 42.1433 -72.0650 234° Southwest 474 545 38,800 1,350 Climbing Boston Center
Mon 07:25:02 AM 42.0689 -72.2025 234° Southwest 469 540 40,000 600 Climbing Boston Center
Mon 07:26:02 AM 41.9939 -72.3311 232° Southwest 458 527 40,000  Level Boston Center
Mon 07:27:02 AM 41.9211 -72.4653 234° Southwest 453 521 40,000  Level Boston Center
Mon 07:28:02 AM 41.8458 -72.5961 232° Southwest 453 521 40,000  Level Boston Center
Mon 07:29:02 AM 41.7728 -72.7294 234° Southwest 453 521 40,000  Level Boston Center
Mon 07:30:02 AM 41.6972 -72.8600 232° Southwest 453 521 40,000  Level Boston Center
Mon 07:31:02 AM 41.6217 -72.9900 232° Southwest 453 521 40,000  Level Boston Center
Mon 07:32:02 AM 41.5500 -73.1197 234° Southwest 453 521 40,000  Level Boston Center
Mon 07:33:02 AM 41.4869 -73.2269 232° Southwest 440 506 40,000  Level Boston Center
Mon 07:34:02 AM 41.4172 -73.3536 234° Southwest 435 501 40,000  Level Boston Center
Mon 07:35:02 AM 41.3431 -73.4825 233° Southwest 435 501 40,000  Level Boston Center
Mon 07:37:17 AM 41.1736 -73.7703 232° Southwest 433 498 40,000  Level New York Center
Mon 07:38:18 AM 41.0994 -73.8908 231° Southwest 433 498 40,000  Level New York Center
Mon 07:39:18 AM 41.0233 -74.0164 231° Southwest 433 498 40,000  Level New York Center
Mon 07:40:19 AM 40.9531 -74.1394 233° Southwest 433 498 40,000  Level New York Center
Mon 07:41:19 AM 40.8856 -74.2431 229° Southwest 433 498 40,000  Level New York Center
Mon 07:42:17 AM 40.8131 -74.3656 232° Southwest 433 498 40,000  Level New York Center
Mon 07:43:17 AM 40.7386 -74.4847 231° Southwest 433 498 40,000  Level New York Center
Mon 07:44:18 AM 40.6661 -74.6039 231° Southwest 428 493 40,000  Level New York Center
Mon 07:45:19 AM 40.5933 -74.7256 232° Southwest 428 493 40,000  Level New York Center
Mon 07:46:20 AM 40.5122 -74.8439 228° Southwest 433 498 40,000  Level New York Center
Mon 07:47:17 AM 40.4311 -74.9564 227° Southwest 440 506 40,000  Level New York Center
Mon 07:48:18 AM 40.3519 -75.0714 228° Southwest 440 506 40,000  Level New York Center
Mon 07:49:18 AM 40.2706 -75.1858 227° Southwest 435 501 40,000  Level New York Center
Mon 07:50:18 AM 40.1869 -75.3028 227° Southwest 435 501 40,000  Level New York Center
Mon 07:51:17 AM 40.1053 -75.4169 227° Southwest 435 501 40,000  Level New York Center
Mon 07:52:17 AM 40.0239 -75.5281 226° Southwest 435 501 40,000  Level New York Center
Mon 07:53:18 AM 39.9439 -75.6444 228° Southwest 430 495 40,000  Level New York Center
Mon 07:54:19 AM 39.8642 -75.7608 228° Southwest 430 495 40,000  Level New York Center
Mon 07:55:19 AM 39.7881 -75.8797 230° Southwest 430 495 40,000  Level New York Center
Mon 07:57:27 AM 39.6247 -76.1464 232° Southwest 436 502 40,000  Level Washington Center
Mon 07:58:26 AM 39.5431 -76.2697 229° Southwest 441 507 40,000  Level Washington Center
Mon 07:59:24 AM 39.4650 -76.3872 229° Southwest 441 507 40,000  Level Washington Center
Mon 08:00:24 AM 39.3892 -76.5072 231° Southwest 441 507 40,000  Level Washington Center
Mon 08:01:25 AM 39.3092 -76.6269 229° Southwest 446 513 40,000  Level Washington Center
Mon 08:03:00 AM 39.1939 -76.8008 229° Southwest  Level FlightAware Approximate
Mon 08:03:26 AM 39.1567 -76.8631 229° Southwest 446 513 40,000  Level Washington Center
Mon 08:04:24 AM 39.0803 -76.9847 231° Southwest 441 507 40,000  Level Washington Center
Mon 08:05:26 AM 38.9958 -77.0925 225° Southwest 436 502 40,000  Level Washington Center
Mon 08:07:25 AM 38.8181 -77.2861 220° Southwest 424 488 40,000  Level Washington Center
Mon 08:08:24 AM 38.7269 -77.3853 220° Southwest 424 488 40,000  Level Washington Center
Mon 08:09:24 AM 38.6464 -77.4708 220° Southwest 429 494 40,000  Level Washington Center
Mon 08:10:24 AM 38.5572 -77.5697 221° Southwest 429 494 40,000  Level Washington Center
Mon 08:11:25 AM 38.4722 -77.6656 221° Southwest 424 488 40,000  Level Washington Center
Mon 08:12:26 AM 38.3853 -77.7583 220° Southwest 424 488 40,000  Level Washington Center
Mon 08:13:25 AM 38.2981 -77.8511 220° Southwest 417 480 40,000  Level Washington Center
Mon 08:14:25 AM 38.2128 -77.9411 220° Southwest 412 474 40,000  Level Washington Center
Mon 08:15:26 AM 38.1275 -78.0333 220° Southwest 412 474 40,000  Level Washington Center
Mon 08:17:24 AM 37.9528 -78.2175 220° Southwest 401 461 40,000  Level Washington Center
Mon 08:18:24 AM 37.8717 -78.2908 216° Southwest 401 461 40,000  Level Washington Center
Mon 08:19:26 AM 37.7822 -78.3769 217° Southwest 401 461 40,000  Level Washington Center
Mon 08:21:26 AM 37.6050 -78.5461 217° Southwest 401 461 40,000  Level Washington Center
Mon 08:22:25 AM 37.5047 -78.6392 216° Southwest 406 467 40,000  Level Washington Center
Mon 08:23:26 AM 37.4128 -78.7242 216° Southwest 406 467 40,000  Level Washington Center
Mon 08:24:26 AM 37.3208 -78.8094 216° Southwest 411 473 40,000  Level Washington Center
Mon 08:26:24 AM 37.1369 -78.9761 216° Southwest 416 479 40,000  Level Washington Center
Mon 08:27:25 AM 37.0444 -79.0658 218° Southwest 416 479 40,000  Level Washington Center
Mon 08:28:26 AM 36.9589 -79.1400 215° Southwest 416 479 40,000  Level Washington Center
Mon 08:29:24 AM 36.8686 -79.2292 218° Southwest 416 479 40,000  Level Washington Center
Mon 08:30:24 AM 36.7742 -79.3131 215° Southwest 416 479 40,000  Level Washington Center
Mon 08:31:24 AM 36.6839 -79.3992 217° Southwest 416 479 40,000  Level Washington Center
Mon 08:33:00 AM 36.5342 -79.5201 215° Southwest  Level FlightAware Approximate
Mon 08:33:46 AM 36.4556 -79.5992 215° Southwest 418 481 40,000  Level Atlanta Center
Mon 08:34:46 AM 36.3625 -79.6817 216° Southwest 405 466 40,000  Level Atlanta Center
Mon 08:35:46 AM 36.2719 -79.7714 219° Southwest 413 475 40,000  Level Atlanta Center
Mon 08:36:46 AM 36.1786 -79.8511 215° Southwest 419 482 40,000  Level Atlanta Center
Mon 08:37:46 AM 36.0897 -79.9328 217° Southwest 419 482 40,000  Level Atlanta Center
Mon 08:38:46 AM 36.0042 -79.9961 211° Southwest 414 476 40,000  Level Atlanta Center
Mon 08:39:46 AM 35.8956 -80.0503 202° Southwest 409 471 40,000  Level Atlanta Center
Mon 08:40:46 AM 35.7928 -80.1014 202° Southwest 409 471 40,000  Level Atlanta Center
Mon 08:41:46 AM 35.6881 -80.1550 203° Southwest 409 471 40,000  Level Atlanta Center
Mon 08:42:46 AM 35.5833 -80.2108 203° Southwest 409 471 40,000  Level Atlanta Center
Mon 08:43:46 AM 35.4808 -80.2617 202° Southwest 409 471 40,000  Level Atlanta Center
Mon 08:46:14 AM 35.2114 -80.3928 202° Southwest 410 472 40,000  Level Jacksonville Center
Mon 08:47:14 AM 35.1081 -80.4467 203° Southwest 410 472 40,000  Level Jacksonville Center
Mon 08:49:00 AM 34.9241 -80.5317 201° Southwest  Level FlightAware Approximate
Mon 08:50:14 AM 34.8086 -80.5942 201° Southwest 405 466 40,000  Level Jacksonville Center
Mon 08:51:14 AM 34.7008 -80.6450 201° Southwest 405 466 40,000  Level Jacksonville Center
Mon 08:52:14 AM 34.5894 -80.7008 202° Southwest 417 480 40,000  Level Jacksonville Center
Mon 08:53:14 AM 34.4839 -80.7539 203° Southwest 422 486 40,000  Level Jacksonville Center
Mon 08:54:14 AM 34.3764 -80.8094 203° Southwest 422 486 40,000  Level Jacksonville Center
Mon 08:55:14 AM 34.2747 -80.8572 201° Southwest 415 478 40,000  Level Jacksonville Center
Mon 08:56:14 AM 34.1672 -80.9075 201° Southwest 415 478 40,000  Level Jacksonville Center
Mon 08:57:14 AM 34.0594 -80.9600 202° Southwest 420 483 40,000  Level Jacksonville Center
Mon 08:58:14 AM 33.9539 -81.0097 201° Southwest 420 483 40,000  Level Jacksonville Center
Mon 09:00:14 AM 33.7383 -81.1169 202° Southwest 415 478 40,000  Level Jacksonville Center
Mon 09:01:14 AM 33.6283 -81.1689 201° Southwest 415 478 40,000  Level Jacksonville Center
Mon 09:02:14 AM 33.5228 -81.2233 203° Southwest 415 478 40,000  Level Jacksonville Center
Mon 09:03:14 AM 33.4169 -81.2750 202° Southwest 415 478 40,000  Level Jacksonville Center
Mon 09:04:14 AM 33.3092 -81.3267 202° Southwest 415 478 40,000  Level Jacksonville Center
Mon 09:05:14 AM 33.2011 -81.3783 202° Southwest 415 478 40,000  Level Jacksonville Center
Mon 09:06:14 AM 33.0953 -81.4322 203° Southwest 415 478 40,000  Level Jacksonville Center
Mon 09:07:14 AM 32.9853 -81.4858 202° Southwest 415 478 40,000  Level Jacksonville Center
Mon 09:08:14 AM 32.8817 -81.5369 203° Southwest 415 478 40,000  Level Jacksonville Center
Mon 09:10:14 AM 32.6697 -81.6389 202° Southwest 415 478 40,000  Level Jacksonville Center
Mon 09:11:14 AM 32.5533 -81.6922 201° Southwest 415 478 40,000  Level Jacksonville Center
Mon 09:12:14 AM 32.4494 -81.7453 203° Southwest 410 472 40,000  Level Jacksonville Center
Mon 09:13:14 AM 32.3414 -81.7933 201° Southwest 410 472 40,000  Level Jacksonville Center
Mon 09:15:14 AM 32.1333 -81.8967 203° Southwest 410 472 40,000  Level Jacksonville Center
Mon 09:16:14 AM 32.0294 -81.9442 201° Southwest 410 472 40,000  Level Jacksonville Center
Mon 09:17:14 AM 31.9233 -81.9917 201° Southwest 410 472 40,000  Level Jacksonville Center
Mon 09:19:14 AM 31.7192 -82.0719 198° South 405 466 40,000  Level Jacksonville Center
Mon 09:20:14 AM 31.6089 -82.1314 205° Southwest 405 466 40,000  Level Jacksonville Center
Mon 09:21:14 AM 31.5300 -82.2100 220° Southwest 385 443 40,000  Level Jacksonville Center
Mon 09:23:00 AM 31.3497 -82.2956 194° South  Level FlightAware Approximate
Mon 09:25:14 AM 31.1361 -82.3925 198° South 390 449 40,000  Level Jacksonville Center
Mon 09:26:14 AM 31.0319 -82.4175 192° South 396 456 39,600 -500 Descending Jacksonville Center
Mon 09:28:00 AM 30.8383 -82.4577 190° South  Level FlightAware Approximate
Mon 09:29:14 AM 30.7000 -82.4456 190° South 417 480 38,000  Level Jacksonville Center
Mon 09:30:00 AM 30.5979 -82.5133 198° South  Level FlightAware Approximate
Mon 09:31:00 AM 30.5183 -82.5432 198° South  Level FlightAware Approximate
Mon 09:31:14 AM 30.4597 -82.4275 198° South 430 495 37,400  Level Jacksonville Center
Mon 09:32:14 AM 30.3450 -82.4183 176° South 430 495 36,400 -950 Descending Jacksonville Center
Mon 09:33:14 AM 30.2281 -82.4094 176° South 420 483 35,500 -900 Descending Jacksonville Center
Mon 09:34:14 AM 30.1089 -82.4003 176° South 425 489 34,600 -1,483 Descending Jacksonville Center
Mon 09:36:00 AM 29.9135 -82.3815 175° South  Level FlightAware Approximate
Mon 09:39:14 AM 29.5033 -82.3486 174° South 421 484 26,600  Level Jacksonville Center
Mon 09:40:14 AM 29.3925 -82.3347 174° South 410 472 25,600 -1,000 Descending Jacksonville Center
Mon 09:41:14 AM 29.2819 -82.3236 175° South 405 466 24,600 -1,767 Descending Jacksonville Center
Mon 09:43:00 AM 29.1403 -82.2952 174° South  Level FlightAware Approximate
Mon 09:43:14 AM 29.0711 -82.2986 174° South 394 453 20,300  Level Jacksonville Center
Mon 09:44:00 AM 29.0299 -82.2829 174° South  Level FlightAware Approximate
Mon 09:45:14 AM 28.8831 -82.2761 174° South 383 441 16,100  Level Jacksonville Center
Mon 09:46:14 AM 28.7725 -82.2650 175° South 377 434 13,700 -1,600 Descending Jacksonville Center
Mon 09:47:14 AM 28.6700 -82.2561 176° South 353 406 12,900 -762 Descending Jacksonville Center
Mon 09:48:20 AM 28.5667 -82.2500 177° South 325 374 12,100 -429 Descending Tampa TRACON
Mon 09:49:20 AM 28.4833 -82.2500 180° South 322 371 12,000 -53 Descending Tampa TRACON
Mon 09:50:14 AM 28.4000 -82.2500 180° South 320 368 12,000 -421 Level Tampa TRACON
Mon 09:51:14 AM 28.3167 -82.2833 199° South 314 361 11,200 -950 Descending Tampa TRACON
Mon 09:52:14 AM 28.2333 -82.3000 190° South 292 336 10,100 -1,000 Descending Tampa TRACON
Mon 09:53:20 AM 28.1667 -82.3500 213° Southwest 261 300 9,100 -1,244 Descending Tampa TRACON
Mon 09:55:00 AM 27.9839 -82.3753 187° South  Level FlightAware Approximate
Mon 09:56:20 AM 27.9667 -82.4000 187° South 238 274 5,000  Level Tampa TRACON
Mon 09:57:20 AM 27.9000 -82.4167 192° South 223 257 5,000 -347 Level Tampa TRACON
Mon 09:58:21 AM 27.8500 -82.4333 196° South 225 259 4,300 -750 Descending Tampa TRACON
Mon 09:59:20 AM 27.8000 -82.4667 211° Southwest 205 236 3,500 -850 Descending Tampa TRACON
Mon 10:00:21 AM 27.8167 -82.5333 286° West 205 236 2,600 -496 Descending Tampa TRACON
Mon 10:01:21 AM 27.8667 -82.5500 344° North 165 190 2,500 -650 Descending Tampa TRACON
Mon 10:02:21 AM 27.9000 -82.5500 360° North 137 158 1,300 -1,000 Descending Tampa TRACON
Mon 10:03:21 AM 27.9333 -82.5500 360° North 133 153 500 -800 Descending Tampa TRACON
Mon 10:05:00 AM 27.9667 -82.5167 350° North  Level FlightAware Approximate
Mon 10:12:00 AM 27.9755 -82.5332 350° North  Level Estimated
Mon 10:13:00 AM 27.9755 -82.5332 350° North  Level Estimated
Mon 10:14:00 AM 27.9755 -82.5332 350° North  Level Estimated
Mon 10:15:00 AM 27.9755 -82.5332 350° North  Level Estimated
Mon 10:16:00 AM 27.9755 -82.5332 350° North  Level Estimated

Login

Don't have an account? Register now (free) for customized features, flight alerts, and more!